Cherry Valley, Massachusetts
Current Conditions -  °F | °C
As of 2:54 AM on Sunday 26 Oct 2014 (Local Time) from KORH Reporting Station
Clear Clear  
Wind Chill: 43°   Ceiling: Unl
Heat Index: 48°   Visibility: 10mi
Dew Point: 42°   Wind: 12mph
Humidity: 80%   Direction: 220°SW
Pressure: 29.47"   Gusts: NA
Location:  42.24°N, 71.87°W
Report Text: KORH 260654Z AUTO 22010KT 10SM CLR 09/06 A2947 RMK AO2 SLP982 T00890056
Loading
Personal Weather Stations






























Interactive Weather Map
Tropical Storm Tracking
New forecast layout! Learn more

10-Day Weather Forecast

Advertisements
Track Severe Weather on mobile